createdAt,value
2022-11-24T00:01:12.264Z,99605.28
2022-11-24T00:03:39.074Z,99609.03
2022-11-24T00:06:08.397Z,99614.97
2022-11-24T00:08:36.301Z,99613.31
2022-11-24T00:11:11.369Z,99620.94
2022-11-24T00:13:39.291Z,99620.13
2022-11-24T00:16:19.377Z,99627.00
2022-11-24T00:18:48.099Z,99632.41
2022-11-24T00:21:16.582Z,99626.34
2022-11-24T00:23:43.794Z,99628.97
2022-11-24T00:26:13.498Z,99633.66
2022-11-24T00:28:41.199Z,99631.88
2022-11-24T00:31:32.705Z,99635.34
2022-11-24T00:34:01.565Z,99633.00
2022-11-24T00:36:31.545Z,99639.06
2022-11-24T00:39:03.058Z,99639.22
2022-11-24T00:41:30.168Z,99653.03
2022-11-24T00:43:57.918Z,99657.63
2022-11-24T00:46:25.951Z,99654.28
2022-11-24T00:48:53.789Z,99663.03
2022-11-24T00:51:23.578Z,99662.31
2022-11-24T00:53:50.727Z,99660.41
2022-11-24T00:56:17.479Z,99667.59
2022-11-24T00:58:44.283Z,99670.22
2022-11-24T01:01:17.449Z,99672.16
2022-11-24T01:03:44.846Z,99675.75
2022-11-24T01:06:14.868Z,99677.56
2022-11-24T01:08:41.928Z,99670.63
2022-11-24T01:11:19.179Z,99666.63
2022-11-24T01:13:48.786Z,99671.06
2022-11-24T01:16:21.104Z,99674.38
2022-11-24T01:18:47.990Z,99685.84
2022-11-24T01:21:15.861Z,99681.59
2022-11-24T01:23:42.654Z,99688.91
2022-11-24T01:26:12.581Z,99684.91
2022-11-24T01:28:44.899Z,99692.13
2022-11-24T01:31:14.025Z,99680.72
2022-11-24T01:33:40.779Z,99676.72
2022-11-24T01:36:07.737Z,99680.88
2022-11-24T01:38:34.530Z,99688.63
2022-11-24T01:41:11.320Z,99683.91
2022-11-24T01:43:38.484Z,99680.47
2022-11-24T01:46:27.994Z,99683.09
2022-11-24T01:49:06.472Z,99686.56
2022-11-24T01:51:37.021Z,99681.72
2022-11-24T01:54:28.330Z,99676.31
2022-11-24T01:57:00.134Z,99687.25
2022-11-24T01:59:26.919Z,99685.31
2022-11-24T02:01:56.604Z,99682.69
2022-11-24T02:04:27.952Z,99692.50
2022-11-24T02:06:57.751Z,99693.88
2022-11-24T02:09:31.363Z,99692.25
2022-11-24T02:12:00.605Z,99696.41
2022-11-24T02:14:27.861Z,99701.66
2022-11-24T02:16:54.679Z,99700.00
2022-11-24T02:19:33.708Z,99695.56
2022-11-24T02:22:01.660Z,99702.63
2022-11-24T02:24:46.569Z,99701.25
2022-11-24T02:27:13.515Z,99704.31
2022-11-24T02:29:40.963Z,99696.94
2022-11-24T02:32:10.115Z,99692.63
2022-11-24T02:34:36.936Z,99695.38
2022-11-24T02:37:03.698Z,99697.75
2022-11-24T02:39:30.406Z,99696.66
2022-11-24T02:42:01.616Z,99693.75
2022-11-24T02:44:32.597Z,99689.47
2022-11-24T02:47:08.443Z,99686.56
2022-11-24T02:49:35.932Z,99680.84
2022-11-24T02:52:03.509Z,99678.50
2022-11-24T02:54:30.203Z,99678.22
2022-11-24T02:56:57.147Z,99674.06
2022-11-24T02:59:24.152Z,99676.47
2022-11-24T03:01:50.971Z,99685.75
2022-11-24T03:04:17.880Z,99689.75
2022-11-24T03:06:44.604Z,99687.81
2022-11-24T03:09:14.037Z,99685.19
2022-11-24T03:11:41.098Z,99694.03
2022-11-24T03:14:08.163Z,99689.75
2022-11-24T03:16:35.159Z,99694.75
2022-11-24T03:19:02.645Z,99698.06
2022-11-24T03:21:29.550Z,99700.00
2022-11-24T03:23:56.417Z,99704.03
2022-11-24T03:26:24.986Z,99701.09
2022-11-24T03:28:56.412Z,99703.16
2022-11-24T03:31:24.190Z,99704.84
2022-11-24T03:33:51.185Z,99702.91
2022-11-24T03:36:18.122Z,99700.28
2022-11-24T03:38:45.157Z,99710.53
2022-11-24T03:41:12.057Z,99705.53
2022-11-24T03:43:43.511Z,99712.28
2022-11-24T03:46:12.304Z,99712.56
2022-11-24T03:48:39.372Z,99725.06
2022-11-24T03:51:06.435Z,99729.06
2022-11-24T03:53:34.136Z,99715.91
2022-11-24T03:56:01.995Z,99738.44
2022-11-24T03:58:29.401Z,99729.06
2022-11-24T04:00:56.560Z,99737.34
2022-11-24T04:03:23.691Z,99741.78
2022-11-24T04:05:50.941Z,99742.22
2022-11-24T04:08:18.313Z,99741.38
2022-11-24T04:10:45.178Z,99737.94
2022-11-24T04:13:14.762Z,99743.06
2022-11-24T04:15:42.463Z,99738.50
2022-11-24T04:18:10.876Z,99735.16
2022-11-24T04:20:37.970Z,99736.56
2022-11-24T04:23:05.112Z,99735.84
2022-11-24T04:25:32.209Z,99747.34
2022-11-24T04:27:58.976Z,99748.72
2022-11-24T04:30:27.304Z,99758.97
2022-11-24T04:32:54.020Z,99762.25
2022-11-24T04:35:21.351Z,99767.66
2022-11-24T04:37:48.163Z,99773.22
2022-11-24T04:40:14.989Z,99781.69
2022-11-24T04:42:41.698Z,99782.50
2022-11-24T04:45:08.948Z,99784.13
2022-11-24T04:47:35.633Z,99791.44
2022-11-24T04:50:02.363Z,99793.50
2022-11-24T04:52:30.157Z,99802.84
2022-11-24T04:54:56.927Z,99801.63
2022-11-24T04:57:25.994Z,99812.69
2022-11-24T04:59:53.586Z,99820.13
2022-11-24T05:02:20.615Z,99820.25
2022-11-24T05:04:47.938Z,99833.66
2022-11-24T05:07:18.639Z,99838.47
2022-11-24T05:10:05.447Z,99837.84
2022-11-24T05:12:32.276Z,99841.75
2022-11-24T05:14:59.914Z,99847.94
2022-11-24T05:17:32.001Z,99851.97
2022-11-24T05:19:58.808Z,99847.72
2022-11-24T05:22:26.023Z,99852.47
2022-11-24T05:24:52.882Z,99852.84
2022-11-24T05:27:19.537Z,99861.00
2022-11-24T05:29:46.311Z,99858.91
2022-11-24T05:32:12.992Z,99858.72
2022-11-24T05:34:39.689Z,99850.13
2022-11-24T05:37:06.748Z,99865.03
2022-11-24T05:39:34.856Z,99853.59
2022-11-24T05:42:22.097Z,99869.19
2022-11-24T05:44:48.863Z,99870.28
2022-11-24T05:47:15.769Z,99870.75
2022-11-24T05:49:42.668Z,99869.00
2022-11-24T05:52:09.672Z,99880.94
2022-11-24T05:54:36.620Z,99883.44
2022-11-24T05:57:03.461Z,99890.97
2022-11-24T05:59:30.241Z,99891.31
2022-11-24T06:01:56.997Z,99900.78
2022-11-24T06:04:23.737Z,99908.22
2022-11-24T06:06:51.068Z,99908.00
2022-11-24T06:09:17.854Z,99921.38
2022-11-24T06:11:44.450Z,99921.38
2022-11-24T06:14:11.665Z,99928.53
2022-11-24T06:16:38.790Z,99921.50
2022-11-24T06:19:05.542Z,99928.94
2022-11-24T06:21:32.464Z,99934.06
2022-11-24T06:23:59.173Z,99943.59
2022-11-24T06:26:25.832Z,99951.47
2022-11-24T06:28:52.495Z,99947.91
2022-11-24T06:31:19.252Z,99956.22
2022-11-24T06:33:45.960Z,99965.91
2022-11-24T06:36:14.284Z,99956.81
2022-11-24T06:38:41.075Z,99964.44
2022-11-24T06:41:11.953Z,99965.72
2022-11-24T06:43:39.020Z,99968.97
2022-11-24T06:46:06.078Z,99963.72
2022-11-24T06:48:33.360Z,99966.47
2022-11-24T06:51:06.275Z,99972.66
2022-11-24T06:53:37.862Z,99973.06
2022-11-24T06:56:09.457Z,99971.00
2022-11-24T06:58:46.101Z,99982.88
2022-11-24T07:01:17.818Z,99989.28
2022-11-24T07:03:45.292Z,99998.59
2022-11-24T07:06:12.049Z,99990.34
2022-11-24T07:08:38.802Z,99997.09
2022-11-24T07:11:06.803Z,100005.06
2022-11-24T07:13:33.958Z,100005.34
2022-11-24T07:16:09.666Z,100005.81
2022-11-24T07:18:36.418Z,100008.50
2022-11-24T07:21:06.151Z,100021.97
2022-11-24T07:23:32.865Z,100020.94
2022-11-24T07:26:05.251Z,100023.91
2022-11-24T07:28:36.635Z,100032.22
2022-11-24T07:31:12.001Z,100040.16
2022-11-24T07:33:39.189Z,100041.28
2022-11-24T07:36:07.223Z,100043.97
2022-11-24T07:38:34.640Z,100038.75
2022-11-24T07:41:07.228Z,100038.50
2022-11-24T07:43:35.808Z,100039.16
2022-11-24T07:46:05.004Z,100047.47
2022-11-24T07:48:32.179Z,100045.25
2022-11-24T07:51:03.173Z,100047.63
2022-11-24T07:53:31.419Z,100049.03
2022-11-24T07:56:00.456Z,100057.22
2022-11-24T07:58:33.434Z,100065.00
2022-11-24T08:01:08.296Z,100060.97
2022-11-24T08:03:35.747Z,100065.38
2022-11-24T08:08:49.387Z,100067.34
2022-11-24T08:11:17.926Z,100066.25
2022-11-24T08:13:44.644Z,100077.50
2022-11-24T08:16:19.562Z,100082.13
2022-11-24T08:18:52.886Z,100084.94
2022-11-24T08:21:19.727Z,100085.19
2022-11-24T08:23:46.728Z,100065.34
2022-11-24T08:26:17.711Z,100075.91
2022-11-24T08:28:46.625Z,100081.00
2022-11-24T08:31:16.908Z,100085.44
2022-11-24T08:33:43.639Z,100083.53
2022-11-24T08:36:12.762Z,100080.59
2022-11-24T08:38:39.957Z,100086.00
2022-11-24T08:41:12.940Z,100089.47
2022-11-24T08:43:40.324Z,100099.31
2022-11-24T08:46:11.018Z,100088.50
2022-11-24T08:48:38.008Z,100095.75
2022-11-24T08:51:10.617Z,100096.56
2022-11-24T08:53:37.524Z,100104.50
2022-11-24T08:56:04.893Z,100102.28
2022-11-24T08:58:32.394Z,100108.38
2022-11-24T09:01:11.160Z,100111.59
2022-11-24T09:03:42.313Z,100106.97
2022-11-24T09:06:13.271Z,100109.63
2022-11-24T09:08:40.814Z,100112.13
2022-11-24T09:11:12.617Z,100116.84
2022-11-24T09:13:40.103Z,100123.63
2022-11-24T09:16:10.695Z,100118.50
2022-11-24T09:18:37.904Z,100118.50
2022-11-24T09:21:09.054Z,100115.72
2022-11-24T09:23:36.062Z,100112.84
2022-11-24T09:26:07.720Z,100117.41
2022-11-24T09:28:34.834Z,100121.00
2022-11-24T09:31:06.626Z,100128.66
2022-11-24T09:33:34.295Z,100122.13
2022-11-24T09:36:01.588Z,100132.13
2022-11-24T09:38:29.778Z,100140.84
2022-11-24T09:40:56.690Z,100132.69
2022-11-24T09:43:44.756Z,100133.25
2022-11-24T09:46:14.574Z,100128.94
2022-11-24T09:48:46.108Z,100127.16
2022-11-24T09:51:15.056Z,100133.66
2022-11-24T09:53:54.859Z,100130.16
2022-11-24T09:56:28.522Z,100139.81
2022-11-24T09:59:02.780Z,100146.19
2022-11-24T10:01:40.418Z,100132.34
2022-11-24T10:04:17.186Z,100148.38
2022-11-24T10:07:12.141Z,100141.00
2022-11-24T10:10:02.292Z,100152.69
2022-11-24T10:12:45.844Z,100144.09
2022-11-24T10:15:38.445Z,100133.38
2022-11-24T10:18:36.151Z,100151.19
2022-11-24T10:21:39.580Z,100143.41
2022-11-24T10:24:09.247Z,100146.44
2022-11-24T10:26:38.099Z,100149.66
2022-11-24T10:29:24.839Z,100147.69
2022-11-24T10:32:06.145Z,100151.59
2022-11-24T10:34:38.520Z,100155.06
2022-11-24T10:37:11.214Z,100159.94
2022-11-24T10:40:26.899Z,100162.72
2022-11-24T10:42:59.248Z,100166.16
2022-11-24T10:45:28.232Z,100163.81
2022-11-24T10:47:55.711Z,100176.59
2022-11-24T10:50:32.610Z,100162.44
2022-11-24T10:53:05.605Z,100162.16
2022-11-24T10:56:05.998Z,100172.16
2022-11-24T10:58:38.610Z,100159.78
2022-11-24T11:01:21.849Z,100155.31
2022-11-24T11:03:53.757Z,100152.13
2022-11-24T11:06:23.634Z,100151.22
2022-11-24T11:09:04.186Z,100157.34
2022-11-24T11:11:31.152Z,100153.00
2022-11-24T11:14:04.628Z,100155.38
2022-11-24T11:16:55.545Z,100145.72
2022-11-24T11:19:55.485Z,100152.59
2022-11-24T11:22:30.656Z,100151.25
2022-11-24T11:25:12.595Z,100151.50
2022-11-24T11:27:40.661Z,100158.63
2022-11-24T11:36:23.478Z,100152.41
2022-11-24T11:38:50.845Z,100153.09
2022-11-24T11:41:24.193Z,100153.09
2022-11-24T11:44:01.951Z,100162.44
2022-11-24T11:46:31.621Z,100151.44
2022-11-24T11:48:58.653Z,100158.81
2022-11-24T11:51:44.855Z,100169.66
2022-11-24T11:54:29.874Z,100175.19
2022-11-24T11:57:07.605Z,100180.75
2022-11-24T11:59:39.238Z,100177.44
2022-11-24T12:02:18.693Z,100173.28
2022-11-24T12:05:05.253Z,100175.34
2022-11-24T12:07:46.964Z,100186.31
2022-11-24T12:10:23.003Z,100186.59
2022-11-24T12:12:55.735Z,100181.63
2022-11-24T12:15:32.878Z,100190.50
2022-11-24T12:18:56.518Z,100184.25
2022-11-24T12:21:32.522Z,100178.69
2022-11-24T12:24:18.167Z,100178.25
2022-11-24T12:27:04.137Z,100179.38
2022-11-24T12:29:46.014Z,100169.91
2022-11-24T12:32:16.067Z,100169.50
2022-11-24T12:34:42.584Z,100175.59
2022-11-24T12:37:46.160Z,100169.06
2022-11-24T12:41:18.343Z,100165.97
2022-11-24T12:43:55.276Z,100164.72
2022-11-24T12:46:40.578Z,100171.16
2022-11-24T12:49:10.278Z,100168.91
2022-11-24T12:51:42.053Z,100167.66
2022-11-24T12:54:20.338Z,100162.53
2022-11-24T12:56:59.905Z,100154.88
2022-11-24T12:59:38.803Z,100157.38
2022-11-24T13:02:24.738Z,100152.38
2022-11-24T13:05:02.881Z,100147.91
2022-11-24T13:07:45.025Z,100150.97
2022-11-24T13:10:46.471Z,100152.06
2022-11-24T13:13:13.398Z,100163.16
2022-11-24T13:18:52.347Z,100164.44
2022-11-24T13:21:51.095Z,100160.59
2022-11-24T13:24:18.932Z,100156.53
2022-11-24T13:26:50.090Z,100155.97
2022-11-24T13:29:37.533Z,100151.53
2022-11-24T13:32:04.104Z,100150.66
2022-11-24T13:34:39.869Z,100156.56
2022-11-24T13:37:32.076Z,100155.25
2022-11-24T13:40:12.261Z,100154.56
2022-11-24T13:42:57.704Z,100151.44
2022-11-24T13:45:39.765Z,100155.81
2022-11-24T13:48:18.867Z,100161.16
2022-11-24T13:50:54.093Z,100153.44
2022-11-24T13:53:35.820Z,100174.97
2022-11-24T13:56:08.169Z,100164.81
2022-11-24T13:58:39.332Z,100170.41
2022-11-24T14:01:42.538Z,100164.16
2022-11-24T14:04:32.930Z,100171.47
2022-11-24T14:07:12.004Z,100170.72
2022-11-24T14:09:45.645Z,100176.31
2022-11-24T14:12:20.476Z,100189.44
2022-11-24T14:14:52.488Z,100183.03
2022-11-24T14:17:23.540Z,100187.25
2022-11-24T14:19:53.522Z,100189.22
2022-11-24T14:22:26.949Z,100189.63
2022-11-24T14:25:01.464Z,100191.88
2022-11-24T14:27:29.877Z,100191.88
2022-11-24T14:30:01.884Z,100184.81
2022-11-24T14:32:29.166Z,100170.66
2022-11-24T14:34:56.971Z,100192.91
2022-11-24T14:37:23.907Z,100197.78
2022-11-24T14:39:50.690Z,100178.03
2022-11-24T14:42:24.005Z,100199.59
2022-11-24T14:45:00.067Z,100193.53
2022-11-24T14:47:32.745Z,100191.44
2022-11-24T14:50:12.066Z,100191.44
2022-11-24T14:52:49.991Z,100205.06
2022-11-24T14:55:24.596Z,100216.31
2022-11-24T14:57:52.073Z,100217.31
2022-11-24T15:00:24.865Z,100222.72
2022-11-24T15:03:07.876Z,100217.19
2022-11-24T15:05:52.596Z,100210.66
2022-11-24T15:08:19.804Z,100209.25
2022-11-24T15:10:46.895Z,100201.88
2022-11-24T15:13:20.951Z,100211.91
2022-11-24T15:15:54.375Z,100202.72
2022-11-24T15:18:34.595Z,100215.78
2022-11-24T15:21:01.960Z,100217.25
2022-11-24T15:23:30.643Z,100215.22
2022-11-24T15:26:09.779Z,100212.66
2022-11-24T15:28:36.634Z,100214.34
2022-11-24T15:31:06.512Z,100225.97
2022-11-24T15:33:33.244Z,100225.53
2022-11-24T15:36:00.176Z,100227.63
2022-11-24T15:38:27.396Z,100234.97
2022-11-24T15:40:57.915Z,100244.69
2022-11-24T15:43:41.130Z,100244.38
2022-11-24T15:46:09.383Z,100249.22
2022-11-24T15:48:36.446Z,100260.69
2022-11-24T15:51:07.023Z,100264.13
2022-11-24T15:53:44.062Z,100270.47
2022-11-24T15:56:37.940Z,100276.38
2022-11-24T15:59:04.814Z,100275.34
2022-11-24T16:01:33.602Z,100268.00
2022-11-24T16:04:01.270Z,100273.47
2022-11-24T16:06:28.159Z,100279.75
2022-11-24T16:08:55.519Z,100292.81
2022-11-24T16:11:22.995Z,100284.72
2022-11-24T16:13:53.355Z,100294.19
2022-11-24T16:16:21.784Z,100294.09
2022-11-24T16:18:48.912Z,100291.84
2022-11-24T16:21:15.613Z,100277.06
2022-11-24T16:23:42.405Z,100279.13
2022-11-24T16:26:10.128Z,100285.84
2022-11-24T16:28:36.953Z,100288.34
2022-11-24T16:31:03.839Z,100288.34
2022-11-24T16:33:30.752Z,100301.16
2022-11-24T16:35:57.438Z,100303.78
2022-11-24T16:38:24.512Z,100298.31
2022-11-24T16:40:52.582Z,100311.09
2022-11-24T16:43:19.705Z,100310.47
2022-11-24T16:45:46.810Z,100316.47
2022-11-24T16:48:13.597Z,100311.22
2022-11-24T16:50:40.281Z,100307.63
2022-11-24T16:53:07.117Z,100303.34
2022-11-24T16:55:33.800Z,100312.19
2022-11-24T16:58:03.523Z,100317.44
2022-11-24T17:00:30.213Z,100317.56
2022-11-24T17:02:56.924Z,100316.56
2022-11-24T17:05:23.662Z,100312.88
2022-11-24T17:07:50.404Z,100304.75
2022-11-24T17:10:17.290Z,100311.56
2022-11-24T17:12:44.882Z,100310.94
2022-11-24T17:18:25.881Z,100319.78
2022-11-24T17:20:45.121Z,100322.06
2022-11-24T17:23:11.791Z,100329.81
2022-11-24T17:25:38.551Z,100341.63
2022-11-24T17:28:05.195Z,100350.47
2022-11-24T17:30:31.869Z,100362.53
2022-11-24T17:32:58.515Z,100371.38
2022-11-24T17:35:25.243Z,100366.47
2022-11-24T17:37:52.073Z,100367.66
2022-11-24T17:40:34.552Z,100357.75
2022-11-24T17:43:01.675Z,100356.38
2022-11-24T17:45:29.577Z,100365.22
2022-11-24T17:48:00.954Z,100374.06
2022-11-24T17:50:27.656Z,100372.03
2022-11-24T17:52:54.440Z,100368.75
2022-11-24T17:55:22.620Z,100372.78
2022-11-24T17:57:50.003Z,100368.13
2022-11-24T18:00:17.288Z,100377.19
2022-11-24T18:02:43.946Z,100376.97
2022-11-24T18:05:10.726Z,100376.19
2022-11-24T18:07:37.397Z,100389.72
2022-11-24T18:10:04.445Z,100393.09
2022-11-24T18:12:32.345Z,100395.00
2022-11-24T18:14:59.171Z,100393.09
2022-11-24T18:17:25.879Z,100384.63
2022-11-24T18:19:52.644Z,100396.72
2022-11-24T18:22:36.591Z,100397.81
2022-11-24T18:25:07.188Z,100398.19
2022-11-24T18:27:33.888Z,100401.91
2022-11-24T18:30:00.639Z,100408.09
2022-11-24T18:32:27.336Z,100411.00
2022-11-24T18:34:54.201Z,100411.53
2022-11-24T18:37:20.911Z,100416.19
2022-11-24T18:39:47.608Z,100416.78
2022-11-24T18:42:14.327Z,100416.91
2022-11-24T18:44:42.448Z,100416.78
2022-11-24T18:47:09.204Z,100420.41
2022-11-24T18:49:35.911Z,100426.34
2022-11-24T18:52:02.559Z,100433.41
2022-11-24T18:54:29.262Z,100437.13
2022-11-24T18:57:00.242Z,100433.94
2022-11-24T18:59:29.774Z,100436.50
2022-11-24T19:01:57.965Z,100445.47
2022-11-24T19:04:26.248Z,100448.22
2022-11-24T19:06:52.995Z,100447.03
2022-11-24T19:09:22.672Z,100463.47
2022-11-24T19:11:49.709Z,100484.03
2022-11-24T19:14:18.224Z,100481.56
2022-11-24T19:16:47.806Z,100472.13
2022-11-24T19:19:15.144Z,100477.31
2022-11-24T19:21:42.010Z,100463.84
2022-11-24T19:24:10.360Z,100461.91
2022-11-24T19:26:38.172Z,100479.00
2022-11-24T19:29:06.421Z,100472.06
2022-11-24T19:31:33.991Z,100477.94
2022-11-24T19:34:03.006Z,100483.56
2022-11-24T19:36:30.259Z,100493.59
2022-11-24T19:38:58.431Z,100493.47
2022-11-24T19:41:27.764Z,100500.41
2022-11-24T19:43:54.971Z,100502.56
2022-11-24T19:46:23.284Z,100506.63
2022-11-24T19:48:54.113Z,100510.72
2022-11-24T19:51:24.181Z,100504.28
2022-11-24T19:53:51.422Z,100515.66
2022-11-24T19:56:20.922Z,100517.22
2022-11-24T19:58:49.427Z,100513.06
2022-11-24T20:01:24.787Z,100516.28
2022-11-24T20:04:07.138Z,100517.97
2022-11-24T20:06:39.114Z,100511.00
2022-11-24T20:09:09.047Z,100515.44
2022-11-24T20:11:36.358Z,100521.66
2022-11-24T20:14:03.972Z,100513.75
2022-11-24T20:16:32.786Z,100514.38
2022-11-24T20:19:01.974Z,100528.59
2022-11-24T20:21:31.292Z,100523.22
2022-11-24T20:24:04.284Z,100524.66
2022-11-24T20:26:34.046Z,100527.66
2022-11-24T20:29:01.103Z,100528.97
2022-11-24T20:31:31.664Z,100532.91
2022-11-24T20:34:00.487Z,100524.66
2022-11-24T20:36:29.540Z,100526.59
2022-11-24T20:38:56.789Z,100532.56
2022-11-24T20:41:26.175Z,100532.41
2022-11-24T20:43:54.414Z,100530.50
2022-11-24T20:46:26.172Z,100520.59
2022-11-24T20:48:54.089Z,100530.22
2022-11-24T20:51:23.407Z,100535.97
2022-11-24T20:53:51.433Z,100529.03
2022-11-24T20:56:20.784Z,100547.66
2022-11-24T20:58:48.245Z,100538.06
2022-11-24T21:01:18.581Z,100525.31
2022-11-24T21:03:47.220Z,100515.53
2022-11-24T21:06:14.520Z,100522.19
2022-11-24T21:08:42.258Z,100535.47
2022-11-24T21:11:11.273Z,100534.03
2022-11-24T21:13:39.382Z,100532.38
2022-11-24T21:16:19.911Z,100532.00
2022-11-24T21:18:50.744Z,100535.34
2022-11-24T21:21:19.618Z,100542.16
2022-11-24T21:23:46.887Z,100549.81
2022-11-24T21:26:17.158Z,100544.91
2022-11-24T21:28:46.158Z,100549.44
2022-11-24T21:31:18.399Z,100553.63
2022-11-24T21:33:48.177Z,100550.31
2022-11-24T21:36:17.825Z,100548.19
2022-11-24T21:38:49.213Z,100544.94
2022-11-24T21:41:15.963Z,100540.44
2022-11-24T21:43:42.960Z,100551.09
2022-11-24T21:46:11.745Z,100551.31
2022-11-24T21:48:40.066Z,100555.72
2022-11-24T21:51:10.394Z,100571.25
2022-11-24T21:53:38.212Z,100565.66
2022-11-24T21:56:09.842Z,100568.00
2022-11-24T21:58:36.672Z,100565.25
2022-11-24T22:01:05.529Z,100570.75
2022-11-24T22:03:32.319Z,100579.34
2022-11-24T22:06:00.488Z,100572.78
2022-11-24T22:08:29.352Z,100578.28
2022-11-24T22:11:07.550Z,100579.47
2022-11-24T22:13:34.611Z,100579.63
2022-11-24T22:16:06.896Z,100579.78
2022-11-24T22:18:36.425Z,100592.44
2022-11-24T22:21:04.994Z,100585.59
2022-11-24T22:23:32.877Z,100578.81
2022-11-24T22:26:15.875Z,100597.25
2022-11-24T22:28:44.541Z,100595.41
2022-11-24T22:31:22.934Z,100588.34
2022-11-24T22:33:50.647Z,100591.97
2022-11-24T22:36:20.898Z,100589.69
2022-11-24T22:38:52.374Z,100591.38
2022-11-24T22:41:19.159Z,100602.84
2022-11-24T22:43:46.369Z,100599.38
2022-11-24T22:46:18.022Z,100604.63
2022-11-24T22:48:46.394Z,100595.69
2022-11-24T22:51:15.593Z,100596.38
2022-11-24T22:53:42.797Z,100601.19
2022-11-24T22:56:11.444Z,100595.19
2022-11-24T22:58:39.396Z,100601.88
2022-11-24T23:01:11.841Z,100598.78
2022-11-24T23:03:39.132Z,100607.41
2022-11-24T23:06:08.483Z,100609.31
2022-11-24T23:08:36.077Z,100611.50
2022-11-24T23:11:05.559Z,100607.91
2022-11-24T23:13:32.590Z,100610.03
2022-11-24T23:16:03.297Z,100617.00
2022-11-24T23:18:31.099Z,100630.03
2022-11-24T23:21:03.891Z,100619.94
2022-11-24T23:23:30.529Z,100618.88
2022-11-24T23:26:00.495Z,100623.75
2022-11-24T23:28:27.532Z,100625.19
2022-11-24T23:30:54.232Z,100614.34
2022-11-24T23:33:20.936Z,100605.94
2022-11-24T23:35:47.591Z,100617.41
2022-11-24T23:38:14.269Z,100610.38
2022-11-24T23:40:40.966Z,100607.00
2022-11-24T23:43:07.615Z,100617.28
2022-11-24T23:45:34.415Z,100619.69
2022-11-24T23:48:02.333Z,100622.09
2022-11-24T23:50:29.153Z,100627.56
2022-11-24T23:52:55.931Z,100622.38
2022-11-24T23:55:22.565Z,100627.97
2022-11-24T23:57:49.226Z,100621.25
